Time;durP1;ratioP1;P1;durP2;ratioP2;P2;SDS_P1;SDS_P2;PMS_P1;PMS_P2;Temp;Humidity;BMP_temperature;BMP_pressure;BME280_temperature;BME280_humidity;BME280_pressure;Samples;Min_cycle;Max_cycle;Signal;HPM_P1;HPM_P2
2023/12/14 00:02:00;;;;;;;18.17;13.10;;;8.20;99.90;;;;;;4878823;29;20124;-79
2023/12/14 00:04:26;;;;;;;18.15;13.02;;;8.10;99.90;;;;;;4878866;29;20029;-78
2023/12/14 00:06:51;;;;;;;19.50;13.95;;;8.10;99.90;;;;;;4861809;29;20049;-79
2023/12/14 00:09:17;;;;;;;19.88;14.23;;;8.10;99.90;;;;;;4878734;29;20391;-79
2023/12/14 00:11:43;;;;;;;19.90;14.32;;;8.00;99.90;;;;;;4846614;29;20045;-78
2023/12/14 00:14:08;;;;;;;20.00;14.20;;;7.90;99.90;;;;;;4862432;29;20334;-79
2023/12/14 00:16:34;;;;;;;21.80;13.60;;;7.80;99.90;;;;;;4861231;29;20542;-79
2023/12/14 00:19:00;;;;;;;18.98;13.55;;;7.90;99.90;;;;;;4836122;29;20053;-79
2023/12/14 00:21:25;;;;;;;18.98;13.60;;;8.00;99.90;;;;;;4873634;29;20053;-79
2023/12/14 00:23:51;;;;;;;19.88;14.05;;;8.10;99.90;;;;;;4878559;29;20055;-79
2023/12/14 00:26:17;;;;;;;18.67;14.02;;;8.10;99.90;;;;;;4841286;29;20505;-79
2023/12/14 00:28:43;;;;;;;20.48;14.80;;;7.90;99.90;;;;;;4865627;29;20035;-79
2023/12/14 00:31:08;;;;;;;22.83;15.65;;;7.90;99.90;;;;;;4862337;29;20044;-79
2023/12/14 00:33:34;;;;;;;20.75;14.50;;;7.80;99.90;;;;;;4877978;29;20064;-79
2023/12/14 00:36:00;;;;;;;21.48;14.50;;;7.80;99.90;;;;;;4879415;29;20057;-79
2023/12/14 00:38:25;;;;;;;18.33;13.82;;;7.80;99.90;;;;;;4841685;29;20486;-79
2023/12/14 00:40:51;;;;;;;20.95;13.73;;;7.90;99.90;;;;;;4879275;29;20505;-80
2023/12/14 00:43:17;;;;;;;20.83;13.77;;;8.00;99.90;;;;;;4878858;29;20398;-79
2023/12/14 00:45:42;;;;;;;20.25;13.68;;;8.00;99.90;;;;;;4863093;29;20033;-79
2023/12/14 00:48:08;;;;;;;20.88;13.20;;;8.10;99.90;;;;;;4832088;29;20539;-79
2023/12/14 00:50:34;;;;;;;19.55;13.73;;;8.10;99.90;;;;;;4857141;29;20406;-80
2023/12/14 00:53:00;;;;;;;18.20;13.82;;;8.20;99.90;;;;;;4878054;29;20029;-79
2023/12/14 00:55:25;;;;;;;18.42;13.27;;;8.10;99.90;;;;;;4881913;29;20465;-79
2023/12/14 00:57:51;;;;;;;23.23;13.38;;;8.10;99.90;;;;;;4865080;29;20441;-79
2023/12/14 01:00:18;;;;;;;20.33;13.57;;;8.10;99.90;;;;;;4882276;29;20470;-79
2023/12/14 01:02:43;;;;;;;17.05;12.85;;;8.00;99.90;;;;;;4864912;29;20587;-79
2023/12/14 01:05:09;;;;;;;17.63;13.00;;;8.00;99.90;;;;;;4865304;29;20041;-79
2023/12/14 01:07:35;;;;;;;17.00;13.30;;;8.10;99.90;;;;;;4881821;29;20044;-79
2023/12/14 01:10:02;;;;;;;15.95;11.82;;;8.20;99.90;;;;;;4881823;29;20066;-79
2023/12/14 01:12:27;;;;;;;15.90;12.90;;;8.30;99.90;;;;;;4865105;29;20033;-78
2023/12/14 01:14:53;;;;;;;17.60;12.98;;;8.40;99.90;;;;;;4882724;29;20474;-81
2023/12/14 01:17:19;;;;;;;15.45;12.75;;;8.30;99.90;;;;;;4864276;29;20044;-79
2023/12/14 01:19:45;;;;;;;14.88;12.57;;;8.30;99.90;;;;;;4845207;29;20132;-80
2023/12/14 01:22:11;;;;;;;14.80;11.45;;;8.20;99.90;;;;;;4878561;29;20125;-80
2023/12/14 01:24:36;;;;;;;15.73;11.90;;;8.00;99.90;;;;;;4865147;29;20064;-79
2023/12/14 01:27:02;;;;;;;14.02;11.20;;;7.90;99.90;;;;;;4838574;29;20037;-80
2023/12/14 01:29:28;;;;;;;14.73;11.60;;;7.90;99.90;;;;;;4864287;29;20045;-79
2023/12/14 01:31:53;;;;;;;14.65;11.80;;;8.10;99.90;;;;;;4881181;29;20048;-79
2023/12/14 01:34:19;;;;;;;14.77;11.38;;;8.10;99.90;;;;;;4881411;29;20116;-79
2023/12/14 01:36:45;;;;;;;14.95;11.65;;;8.10;99.90;;;;;;4881059;29;20095;-77
2023/12/14 01:39:11;;;;;;;16.60;12.02;;;8.30;99.90;;;;;;4862971;29;20036;-78
2023/12/14 01:41:36;;;;;;;16.02;12.45;;;8.30;99.90;;;;;;4848511;29;20041;-78
2023/12/14 01:44:02;;;;;;;14.70;11.88;;;8.30;99.90;;;;;;4863459;29;20120;-79
2023/12/14 01:46:27;;;;;;;14.30;11.73;;;8.30;99.90;;;;;;4830220;29;20033;-79
2023/12/14 01:48:53;;;;;;;14.60;11.20;;;8.30;99.90;;;;;;4875215;29;20033;-79
2023/12/14 01:51:19;;;;;;;16.83;12.90;;;8.30;99.90;;;;;;4863262;29;20595;-79
2023/12/14 01:53:45;;;;;;;16.55;12.77;;;8.30;99.90;;;;;;4879369;29;20165;-79
2023/12/14 01:56:13;;;;;;;14.45;11.60;;;8.20;99.90;;;;;;4863524;29;20033;-79
2023/12/14 01:58:38;;;;;;;15.95;12.10;;;8.20;99.90;;;;;;4879674;29;20028;-79
2023/12/14 02:01:04;;;;;;;16.50;13.43;;;8.30;99.90;;;;;;4879774;29;20393;-79
2023/12/14 02:03:30;;;;;;;15.52;12.52;;;8.40;99.90;;;;;;4879329;29;20350;-79
2023/12/14 02:05:57;;;;;;;15.80;13.40;;;8.30;99.90;;;;;;4862992;29;20498;-79
2023/12/14 02:08:24;;;;;;;14.85;13.23;;;8.30;99.90;;;;;;4879486;29;20470;-79
2023/12/14 02:10:49;;;;;;;16.20;12.50;;;8.40;99.90;;;;;;4879517;29;20041;-79
2023/12/14 02:13:15;;;;;;;15.15;12.43;;;8.40;99.90;;;;;;4879303;29;20043;-79
2023/12/14 02:15:41;;;;;;;14.45;11.98;;;8.40;99.90;;;;;;4862908;29;20033;-78
2023/12/14 02:18:07;;;;;;;19.35;13.88;;;8.40;99.90;;;;;;4879099;29;20064;-79
2023/12/14 02:20:32;;;;;;;16.00;12.65;;;8.50;99.90;;;;;;4863308;29;20068;-79
2023/12/14 02:22:58;;;;;;;13.57;11.90;;;8.40;99.90;;;;;;4879240;29;20450;-79
2023/12/14 02:25:24;;;;;;;16.90;13.07;;;8.30;99.90;;;;;;4862684;29;20462;-79
2023/12/14 02:27:51;;;;;;;15.68;12.23;;;8.20;99.90;;;;;;4879162;29;20045;-79
2023/12/14 02:30:17;;;;;;;16.67;12.75;;;8.20;99.90;;;;;;4879409;29;20041;-80
2023/12/14 02:32:43;;;;;;;15.57;12.07;;;8.10;99.90;;;;;;4879036;29;20065;-78
2023/12/14 02:35:09;;;;;;;15.50;12.25;;;8.10;99.90;;;;;;4822717;29;1186561;-77
2023/12/14 02:37:40;;;;;;;14.07;11.65;;;8.20;99.90;;;;;;4879676;29;20378;-79
2023/12/14 02:40:06;;;;;;;16.20;12.55;;;8.20;99.90;;;;;;4865058;29;20033;-78
2023/12/14 02:42:33;;;;;;;15.38;12.52;;;8.30;99.90;;;;;;4879768;29;20041;-77
2023/12/14 02:44:59;;;;;;;14.70;12.27;;;8.30;99.90;;;;;;4879648;29;20048;-77
2023/12/14 02:47:24;;;;;;;14.32;11.73;;;8.20;99.90;;;;;;4879646;29;20037;-78
2023/12/14 02:49:50;;;;;;;15.73;11.82;;;8.20;99.90;;;;;;4863527;29;20553;-78
2023/12/14 02:52:16;;;;;;;15.75;12.35;;;8.10;99.90;;;;;;4879465;29;20179;-78
2023/12/14 02:54:41;;;;;;;13.13;11.50;;;8.10;99.90;;;;;;4880108;29;20083;-78
2023/12/14 02:57:07;;;;;;;15.77;11.35;;;7.90;99.90;;;;;;4862520;29;20029;-77
2023/12/14 02:59:33;;;;;;;13.75;11.05;;;8.00;99.90;;;;;;4880068;29;20438;-78
2023/12/14 03:01:59;;;;;;;13.20;10.82;;;8.10;99.90;;;;;;4862724;29;20084;-78
2023/12/14 03:04:25;;;;;;;13.25;10.75;;;8.10;99.90;;;;;;4862725;29;20093;-79
2023/12/14 03:06:50;;;;;;;16.05;11.25;;;8.20;99.90;;;;;;4879545;29;20033;-79
2023/12/14 03:09:16;;;;;;;14.90;11.38;;;8.20;99.90;;;;;;4879932;29;20097;-79
2023/12/14 03:11:42;;;;;;;13.00;11.07;;;8.10;99.90;;;;;;4881035;29;20493;-80
2023/12/14 03:14:07;;;;;;;14.40;11.15;;;8.20;99.90;;;;;;4834725;29;20505;-80
2023/12/14 03:16:35;;;;;;;12.45;10.63;;;8.20;99.90;;;;;;4862917;29;20087;-79
2023/12/14 03:19:01;;;;;;;13.80;10.82;;;8.30;99.90;;;;;;4863702;29;20046;-78
2023/12/14 03:21:27;;;;;;;13.27;10.70;;;8.30;99.90;;;;;;4863129;29;20049;-79
2023/12/14 03:23:52;;;;;;;12.02;10.35;;;8.40;99.90;;;;;;4879690;29;20044;-78
2023/12/14 03:26:18;;;;;;;12.07;10.50;;;8.40;99.90;;;;;;4879483;29;20409;-79
2023/12/14 03:28:44;;;;;;;11.90;9.40;;;8.40;99.90;;;;;;4879399;29;20427;-79
2023/12/14 03:31:11;;;;;;;11.95;10.27;;;8.40;99.90;;;;;;4842803;29;20030;-79
2023/12/14 03:33:37;;;;;;;12.82;10.82;;;8.50;99.90;;;;;;4876183;29;20431;-79
2023/12/14 03:36:03;;;;;;;12.48;9.75;;;8.50;99.90;;;;;;4879255;29;20057;-79
2023/12/14 03:38:29;;;;;;;11.13;9.73;;;8.50;99.90;;;;;;4878977;29;20482;-80
2023/12/14 03:40:55;;;;;;;11.82;10.15;;;8.60;99.90;;;;;;4879261;29;20055;-79
2023/12/14 03:43:20;;;;;;;11.57;9.82;;;8.50;99.90;;;;;;4837868;29;20057;-80
2023/12/14 03:45:46;;;;;;;10.27;8.95;;;8.40;99.90;;;;;;4860251;29;20056;-80
2023/12/14 03:48:11;;;;;;;11.25;10.05;;;8.50;99.90;;;;;;4861066;29;20029;-80
2023/12/14 03:50:37;;;;;;;10.60;9.43;;;8.60;99.90;;;;;;4831993;29;20412;-79
2023/12/14 03:53:03;;;;;;;10.63;9.48;;;8.50;99.90;;;;;;4845546;29;20037;-80
2023/12/14 03:55:28;;;;;;;10.63;9.57;;;8.60;99.90;;;;;;4846690;29;20041;-79
2023/12/14 03:57:54;;;;;;;13.20;10.82;;;8.70;99.90;;;;;;4860065;29;20207;-79
2023/12/14 04:00:20;;;;;;;10.60;9.38;;;8.60;99.90;;;;;;4831265;29;20029;-79
2023/12/14 04:02:46;;;;;;;10.73;9.38;;;8.70;99.90;;;;;;4846133;29;20134;-79
2023/12/14 04:05:12;;;;;;;10.57;8.88;;;8.70;99.90;;;;;;4844507;29;20174;-79
2023/12/14 04:07:41;;;;;;;11.57;10.40;;;8.70;99.90;;;;;;4845005;29;20029;-79
2023/12/14 04:10:11;;;;;;;10.95;9.85;;;8.60;99.90;;;;;;4864910;29;20029;-79
2023/12/14 04:12:38;;;;;;;10.50;9.32;;;8.50;99.90;;;;;;4860866;29;20550;-79
2023/12/14 04:15:09;;;;;;;11.15;9.95;;;8.40;99.90;;;;;;4861137;29;20053;-80
2023/12/14 04:17:35;;;;;;;13.75;10.57;;;8.40;99.90;;;;;;4862694;29;20086;-80
2023/12/14 04:20:01;;;;;;;12.20;10.63;;;8.30;99.90;;;;;;4845115;29;20034;-79
2023/12/14 04:22:27;;;;;;;13.40;10.50;;;8.30;99.90;;;;;;4842512;24;20497;-79
2023/12/14 04:24:53;;;;;;;12.05;10.25;;;8.40;99.90;;;;;;4844243;29;20073;-79
2023/12/14 04:27:18;;;;;;;11.60;10.07;;;8.40;99.90;;;;;;4844513;29;20404;-78
2023/12/14 04:29:44;;;;;;;13.18;10.73;;;8.50;99.90;;;;;;4833651;29;20069;-79
2023/12/14 04:32:10;;;;;;;12.95;10.70;;;8.50;99.90;;;;;;4878266;24;20120;-79
2023/12/14 04:34:36;;;;;;;12.55;10.63;;;8.30;99.90;;;;;;4847997;29;20068;-79
2023/12/14 04:37:02;;;;;;;11.38;10.07;;;8.30;99.90;;;;;;4865368;29;20117;-79
2023/12/14 04:39:28;;;;;;;11.95;10.75;;;8.10;99.90;;;;;;4865459;29;20041;-79
2023/12/14 04:41:53;;;;;;;14.25;10.20;;;8.20;99.90;;;;;;4864029;29;20101;-79
2023/12/14 04:44:22;;;;;;;12.60;10.10;;;8.30;99.90;;;;;;4864045;29;20124;-79
2023/12/14 04:46:48;;;;;;;12.02;10.35;;;8.50;99.90;;;;;;4865150;29;20070;-79
2023/12/14 04:49:14;;;;;;;12.15;10.20;;;8.60;99.90;;;;;;4848145;29;20041;-79
2023/12/14 04:51:40;;;;;;;11.18;10.07;;;8.70;99.90;;;;;;4850267;29;20045;-80
2023/12/14 04:54:05;;;;;;;11.52;10.30;;;8.70;99.90;;;;;;4864198;29;20515;-80
2023/12/14 04:56:31;;;;;;;11.52;9.82;;;8.80;99.90;;;;;;4864352;29;20540;-79
2023/12/14 04:58:58;;;;;;;10.95;9.52;;;8.90;99.90;;;;;;4863344;29;20120;-81
2023/12/14 05:01:26;;;;;;;12.05;9.93;;;8.90;99.90;;;;;;4867065;29;20038;-81
2023/12/14 05:03:52;;;;;;;13.05;10.85;;;8.90;99.90;;;;;;4871171;24;20077;-79
2023/12/14 05:06:18;;;;;;;12.10;10.73;;;9.00;99.90;;;;;;4811216;29;20103;-81
2023/12/14 05:08:43;;;;;;;12.50;10.63;;;8.90;99.90;;;;;;4813485;29;20046;-81
2023/12/14 05:11:09;;;;;;;12.23;9.93;;;8.80;99.90;;;;;;4815433;29;20098;-81
2023/12/14 05:13:35;;;;;;;12.15;10.43;;;8.80;99.90;;;;;;4814991;29;20034;-81
2023/12/14 05:16:00;;;;;;;10.85;9.65;;;8.60;99.90;;;;;;4811829;29;20074;-81
2023/12/14 05:18:27;;;;;;;11.27;9.40;;;8.50;99.90;;;;;;4830173;29;20034;-81
2023/12/14 05:20:53;;;;;;;11.15;9.90;;;8.60;99.90;;;;;;4829206;29;20115;-81
2023/12/14 05:23:19;;;;;;;12.75;9.30;;;8.60;99.90;;;;;;4811818;29;20035;-82
2023/12/14 05:25:45;;;;;;;13.73;10.68;;;8.70;99.90;;;;;;4827856;29;20034;-81
2023/12/14 05:28:10;;;;;;;12.63;9.93;;;8.60;99.90;;;;;;4827932;29;20061;-81
2023/12/14 05:30:36;;;;;;;12.50;9.93;;;8.50;99.90;;;;;;4827347;29;20064;-81
2023/12/14 05:33:02;;;;;;;12.45;9.93;;;8.60;99.90;;;;;;4795792;29;20103;-81
2023/12/14 05:35:28;;;;;;;11.00;9.50;;;8.70;99.90;;;;;;4827100;29;20026;-80
2023/12/14 05:37:53;;;;;;;12.18;9.15;;;8.70;99.90;;;;;;4827778;29;20031;-82
2023/12/14 05:40:19;;;;;;;10.65;9.10;;;8.80;99.90;;;;;;4827255;29;20506;-82
2023/12/14 05:42:45;;;;;;;9.88;8.55;;;8.80;99.90;;;;;;4855914;24;20062;-81
2023/12/14 05:45:11;;;;;;;11.02;8.48;;;8.70;99.90;;;;;;4845932;29;20056;-82
2023/12/14 05:47:37;;;;;;;9.20;6.95;;;8.70;99.90;;;;;;4847170;24;20500;-81
2023/12/14 05:50:04;;;;;;;9.90;8.75;;;8.70;99.90;;;;;;4845878;29;20038;-82
2023/12/14 05:52:30;;;;;;;10.48;8.45;;;8.70;99.90;;;;;;4844184;29;20519;-83
2023/12/14 05:54:56;;;;;;;8.77;7.88;;;8.70;99.90;;;;;;4846487;29;20033;-83
2023/12/14 05:57:22;;;;;;;10.68;8.52;;;8.60;99.90;;;;;;4848715;29;20051;-83
2023/12/14 05:59:47;;;;;;;8.10;7.22;;;8.60;99.90;;;;;;4828546;29;20116;-82
2023/12/14 06:02:13;;;;;;;8.98;7.53;;;8.60;99.90;;;;;;4845290;29;20045;-82
2023/12/14 06:04:38;;;;;;;8.63;7.70;;;8.70;99.90;;;;;;4845593;29;20050;-82
2023/12/14 06:07:04;;;;;;;9.23;7.03;;;8.80;99.90;;;;;;4843688;29;20053;-82
2023/12/14 06:09:33;;;;;;;10.63;8.52;;;8.80;99.90;;;;;;4828437;29;20073;-82
2023/12/14 06:12:03;;;;;;;10.20;8.43;;;8.70;99.90;;;;;;4844183;29;20038;-82
2023/12/14 06:14:30;;;;;;;9.50;7.93;;;8.60;99.90;;;;;;4845436;29;20126;-83
2023/12/14 06:16:56;;;;;;;9.38;7.57;;;8.40;99.90;;;;;;4843801;29;20040;-80
2023/12/14 06:19:22;;;;;;;11.00;7.30;;;8.40;99.90;;;;;;4845023;29;20026;-82
2023/12/14 06:21:48;;;;;;;10.38;7.38;;;8.40;99.90;;;;;;4845886;29;20021;-81
2023/12/14 06:24:14;;;;;;;9.07;7.05;;;8.50;99.90;;;;;;4829927;29;20038;-83
2023/12/14 06:26:44;;;;;;;9.32;7.82;;;8.50;99.90;;;;;;4845199;29;20030;-82
2023/12/14 06:29:13;;;;;;;10.55;7.20;;;8.50;99.90;;;;;;4872597;24;20517;-85
2023/12/14 06:31:39;;;;;;;10.77;7.57;;;8.40;99.90;;;;;;4881801;29;20045;-81
2023/12/14 06:34:06;;;;;;;10.88;7.68;;;8.40;99.90;;;;;;4875321;24;20056;-78
2023/12/14 06:36:32;;;;;;;11.15;7.90;;;8.40;99.90;;;;;;4862091;29;20044;-81
2023/12/14 06:38:58;;;;;;;9.30;7.15;;;8.30;99.90;;;;;;4860295;29;20135;-81
2023/12/14 06:41:25;;;;;;;10.65;6.65;;;8.40;99.90;;;;;;4883264;29;20040;-81
2023/12/14 06:43:52;;;;;;;10.23;7.30;;;8.40;99.90;;;;;;4883487;29;20093;-77
2023/12/14 06:46:18;;;;;;;11.20;6.93;;;8.50;99.90;;;;;;4864275;29;20025;-80
2023/12/14 06:48:44;;;;;;;9.52;5.85;;;8.50;99.90;;;;;;4864277;29;20061;-79
2023/12/14 06:51:10;;;;;;;8.25;6.45;;;8.60;99.90;;;;;;4880313;29;20033;-79
2023/12/14 06:53:38;;;;;;;9.10;6.50;;;8.50;99.90;;;;;;4864172;29;20367;-79
2023/12/14 06:56:04;;;;;;;7.18;5.28;;;8.40;99.90;;;;;;4863926;29;20040;-79
2023/12/14 06:58:31;;;;;;;8.27;6.40;;;8.30;99.90;;;;;;4864527;29;20033;-79
2023/12/14 07:00:57;;;;;;;8.98;6.47;;;8.30;99.90;;;;;;4864019;29;20497;-78
2023/12/14 07:03:22;;;;;;;7.63;6.10;;;8.20;99.90;;;;;;4848987;29;20033;-77
2023/12/14 07:05:48;;;;;;;7.13;5.75;;;8.10;99.90;;;;;;4880458;29;20371;-77
2023/12/14 07:08:14;;;;;;;8.80;5.88;;;8.10;99.90;;;;;;4848812;29;20474;-78
2023/12/14 07:10:42;;;;;;;6.18;5.43;;;8.10;99.90;;;;;;4863993;29;20044;-77
2023/12/14 07:13:08;;;;;;;9.00;5.78;;;8.20;99.90;;;;;;4866414;29;20029;-77
2023/12/14 07:15:34;;;;;;;8.70;5.45;;;8.30;99.90;;;;;;4863571;29;20037;-76
2023/12/14 07:17:59;;;;;;;9.93;6.35;;;8.30;99.90;;;;;;4863708;29;20040;-78
2023/12/14 07:20:25;;;;;;;9.10;6.15;;;8.40;99.90;;;;;;4835584;29;20037;-77
2023/12/14 07:22:51;;;;;;;10.32;6.57;;;8.40;99.90;;;;;;4863528;29;20037;-78
2023/12/14 07:25:16;;;;;;;8.35;6.57;;;8.40;99.90;;;;;;4866812;24;20049;-79
2023/12/14 07:27:43;;;;;;;9.45;5.85;;;8.30;99.90;;;;;;4880095;29;20037;-79
2023/12/14 07:30:09;;;;;;;12.05;5.97;;;8.20;99.90;;;;;;4864583;29;20123;-78
2023/12/14 07:32:35;;;;;;;7.47;5.40;;;8.30;99.90;;;;;;4880440;29;20036;-78
2023/12/14 07:35:01;;;;;;;10.20;5.80;;;8.30;99.90;;;;;;4864768;29;20033;-81
2023/12/14 07:37:26;;;;;;;7.97;4.93;;;8.40;99.90;;;;;;4865477;29;20081;-79
2023/12/14 07:39:52;;;;;;;6.93;4.78;;;8.30;99.90;;;;;;4863669;29;20477;-77
2023/12/14 07:42:19;;;;;;;7.25;5.85;;;8.50;99.90;;;;;;4878848;29;20463;-76
2023/12/14 07:44:46;;;;;;;6.60;5.50;;;8.50;99.90;;;;;;4863582;29;20123;-76
2023/12/14 07:47:11;;;;;;;6.90;4.45;;;8.50;99.90;;;;;;4878668;29;20092;-75
2023/12/14 07:49:37;;;;;;;9.30;4.95;;;8.60;99.90;;;;;;4879775;29;20459;-75
2023/12/14 07:52:03;;;;;;;6.40;4.22;;;8.60;99.90;;;;;;4879432;29;20404;-74
2023/12/14 07:54:29;;;;;;;5.57;2.75;;;8.70;99.90;;;;;;4878606;29;20028;-75
2023/12/14 07:56:55;;;;;;;4.03;3.22;;;8.80;99.90;;;;;;4863752;29;20033;-75
2023/12/14 07:59:20;;;;;;;5.30;3.85;;;9.00;99.90;;;;;;4879811;29;20072;-74
2023/12/14 08:01:47;;;;;;;4.05;2.38;;;9.00;99.90;;;;;;4878544;29;20079;-75
2023/12/14 08:04:12;;;;;;;5.72;4.13;;;9.10;99.90;;;;;;4879402;29;20112;-75
2023/12/14 08:06:39;;;;;;;5.60;3.05;;;9.20;99.90;;;;;;4878259;29;20072;-75
2023/12/14 08:09:05;;;;;;;4.93;3.38;;;9.10;99.90;;;;;;4851668;29;20039;-75
2023/12/14 08:11:32;;;;;;;7.25;3.22;;;9.20;99.90;;;;;;4878611;29;20076;-76
2023/12/14 08:13:58;;;;;;;4.63;3.95;;;9.30;99.90;;;;;;4879182;29;20025;-77
2023/12/14 08:16:23;;;;;;;5.53;3.33;;;9.30;99.90;;;;;;4878669;29;20025;-76
2023/12/14 08:18:49;;;;;;;4.80;2.60;;;9.40;99.90;;;;;;4881107;29;20382;-75
2023/12/14 08:21:15;;;;;;;6.10;4.10;;;9.50;99.90;;;;;;4879285;29;20029;-77
2023/12/14 08:23:42;;;;;;;5.55;2.40;;;9.50;99.90;;;;;;4879697;29;20473;-77
2023/12/14 08:26:10;;;;;;;4.25;3.25;;;9.50;99.90;;;;;;4879393;29;20021;-76
2023/12/14 08:28:36;;;;;;;4.88;2.80;;;9.60;99.90;;;;;;4877987;29;20402;-77
2023/12/14 08:31:02;;;;;;;4.13;3.17;;;9.70;99.90;;;;;;4878310;29;20068;-77
2023/12/14 08:33:29;;;;;;;3.63;3.30;;;9.70;99.90;;;;;;4878148;29;20040;-77
2023/12/14 08:35:55;;;;;;;4.90;3.53;;;9.80;99.90;;;;;;4862680;29;20065;-79
2023/12/14 08:38:21;;;;;;;7.00;3.63;;;9.90;99.90;;;;;;4878234;29;20442;-77
2023/12/14 08:40:47;;;;;;;6.20;4.30;;;9.90;99.90;;;;;;4862531;29;20040;-78
2023/12/14 08:43:13;;;;;;;4.90;2.92;;;9.90;99.90;;;;;;4878961;29;20029;-80
2023/12/14 08:45:38;;;;;;;4.35;3.85;;;9.90;99.90;;;;;;4862251;29;20112;-79
2023/12/14 08:48:05;;;;;;;4.65;3.78;;;9.80;99.90;;;;;;4862256;29;20033;-80
2023/12/14 08:50:30;;;;;;;4.70;3.75;;;9.80;99.90;;;;;;4878487;29;20029;-80
2023/12/14 08:52:58;;;;;;;3.70;2.63;;;9.70;99.90;;;;;;4862942;29;20514;-79
2023/12/14 08:55:24;;;;;;;5.40;4.30;;;9.60;99.90;;;;;;4863520;29;20037;-76
2023/12/14 08:57:50;;;;;;;6.80;4.75;;;9.70;99.90;;;;;;4878616;29;20475;-79
2023/12/14 09:00:17;;;;;;;4.70;3.75;;;9.60;99.90;;;;;;4878500;29;20052;-79
2023/12/14 09:02:45;;;;;;;5.68;4.20;;;9.60;99.90;;;;;;4877965;29;20033;-80
2023/12/14 09:05:12;;;;;;;6.43;4.28;;;9.50;99.90;;;;;;4862596;29;20106;-80
2023/12/14 09:07:38;;;;;;;7.43;4.72;;;9.50;99.90;;;;;;4877985;29;20056;-80
2023/12/14 09:10:04;;;;;;;7.05;4.88;;;9.40;99.90;;;;;;4862877;29;20522;-80
2023/12/14 09:12:30;;;;;;;6.20;4.72;;;9.30;99.90;;;;;;4862588;29;20510;-79
2023/12/14 09:14:55;;;;;;;7.00;4.72;;;9.30;99.90;;;;;;4878814;29;20036;-79
2023/12/14 09:17:21;;;;;;;5.78;4.63;;;9.20;99.90;;;;;;4881883;29;20025;-78
2023/12/14 09:19:47;;;;;;;4.93;3.85;;;9.10;99.90;;;;;;4866123;29;20089;-82
2023/12/14 09:22:13;;;;;;;8.70;4.35;;;9.10;99.90;;;;;;4881750;29;20538;-79
2023/12/14 09:24:38;;;;;;;6.38;5.72;;;9.10;99.90;;;;;;4850423;29;20056;-79
2023/12/14 09:27:04;;;;;;;6.75;5.30;;;9.10;99.90;;;;;;4880867;29;20025;-78
2023/12/14 09:29:30;;;;;;;4.20;3.80;;;9.00;99.90;;;;;;4865798;29;20031;-77
2023/12/14 09:31:55;;;;;;;6.53;5.32;;;8.90;99.90;;;;;;4881487;29;20033;-78
2023/12/14 09:34:21;;;;;;;9.98;5.80;;;9.00;99.90;;;;;;4881849;29;20340;-77
2023/12/14 09:36:47;;;;;;;6.70;5.18;;;9.00;99.90;;;;;;4850519;29;20044;-80
2023/12/14 09:39:13;;;;;;;7.28;4.57;;;8.90;99.90;;;;;;4866181;29;20025;-76
2023/12/14 09:41:39;;;;;;;6.15;4.80;;;8.90;99.90;;;;;;4882293;29;20040;-78
2023/12/14 09:44:09;;;;;;;6.03;3.55;;;9.00;99.90;;;;;;4882718;29;20037;-76
2023/12/14 09:46:37;;;;;;;6.70;3.58;;;9.10;99.90;;;;;;4881154;29;20128;-77
2023/12/14 09:49:04;;;;;;;8.30;4.63;;;9.10;99.90;;;;;;4880475;29;20036;-78
2023/12/14 09:51:30;;;;;;;4.68;3.90;;;9.30;99.90;;;;;;4881796;29;20035;-78
2023/12/14 09:54:00;;;;;;;5.72;3.42;;;9.30;99.90;;;;;;4865246;29;20481;-75
2023/12/14 09:56:26;;;;;;;6.50;4.05;;;9.30;99.90;;;;;;4881014;29;20136;-75
2023/12/14 09:58:53;;;;;;;4.60;3.95;;;9.40;99.90;;;;;;4880215;29;20414;-77
2023/12/14 10:01:25;;;;;;;6.65;4.07;;;9.50;99.90;;;;;;4881188;29;20041;-82
2023/12/14 10:04:07;;;;;;;4.70;3.47;;;9.60;99.90;;;;;;4881462;29;20029;-79
2023/12/14 10:06:33;;;;;;;5.93;3.85;;;9.70;99.90;;;;;;4881453;29;20108;-79
2023/12/14 10:08:59;;;;;;;6.05;4.63;;;9.60;99.90;;;;;;4881568;29;20184;-79
2023/12/14 10:11:25;;;;;;;7.22;5.13;;;9.50;99.90;;;;;;4865028;29;20477;-79
2023/12/14 10:13:50;;;;;;;6.97;4.65;;;9.50;99.90;;;;;;4864968;29;20441;-79
2023/12/14 10:16:31;;;;;;;5.35;4.03;;;9.40;99.90;;;;;;4879953;29;20029;-79
2023/12/14 10:19:00;;;;;;;6.35;4.13;;;9.30;99.90;;;;;;4880165;29;20061;-79
2023/12/14 10:21:27;;;;;;;5.40;3.90;;;9.30;99.90;;;;;;4879976;29;20089;-80
2023/12/14 10:23:56;;;;;;;5.65;3.88;;;9.40;99.90;;;;;;4881147;29;20081;-78
2023/12/14 10:26:25;;;;;;;5.50;4.55;;;9.50;99.90;;;;;;4880403;29;20499;-78
2023/12/14 10:28:52;;;;;;;8.23;4.90;;;9.50;99.90;;;;;;4879502;29;20029;-77
2023/12/14 10:31:19;;;;;;;6.57;3.60;;;9.60;99.90;;;;;;4864726;29;20048;-80
2023/12/14 10:33:45;;;;;;;5.50;4.05;;;9.70;99.90;;;;;;4881031;29;20029;-80
2023/12/14 10:36:19;;;;;;;4.72;4.03;;;9.70;99.90;;;;;;4880151;29;20040;-80
2023/12/14 10:38:47;;;;;;;8.40;4.63;;;9.80;99.90;;;;;;4880613;29;20119;-80
2023/12/14 10:41:13;;;;;;;8.50;5.22;;;9.70;99.90;;;;;;4880739;29;20056;-80
2023/12/14 10:43:41;;;;;;;7.15;5.05;;;9.70;99.90;;;;;;4879460;29;20060;-79
2023/12/14 10:46:09;;;;;;;6.50;4.93;;;9.60;99.90;;;;;;4879737;29;20112;-79
2023/12/14 10:48:36;;;;;;;4.55;3.17;;;9.50;99.90;;;;;;4864454;29;20025;-79
2023/12/14 10:51:05;;;;;;;8.00;5.30;;;9.50;99.90;;;;;;4866215;29;20045;-79
2023/12/14 10:53:32;;;;;;;6.32;4.30;;;9.50;99.90;;;;;;4879352;29;20025;-80
2023/12/14 10:56:00;;;;;;;5.65;4.45;;;9.40;99.90;;;;;;4880520;29;20040;-83
2023/12/14 10:58:26;;;;;;;6.70;4.78;;;9.40;99.90;;;;;;4880122;29;20528;-84
2023/12/14 11:01:03;;;;;;;7.28;4.55;;;9.40;99.90;;;;;;4864277;29;20171;-85
2023/12/14 11:03:34;;;;;;;8.95;5.72;;;9.40;99.90;;;;;;4880903;29;20029;-84
2023/12/14 11:06:00;;;;;;;6.93;5.03;;;9.30;99.90;;;;;;4879400;29;20029;-84
2023/12/14 11:08:26;;;;;;;7.88;5.50;;;9.40;99.90;;;;;;4864136;29;20077;-84
2023/12/14 11:11:10;;;;;;;11.77;6.07;;;9.40;99.90;;;;;;4879082;29;20395;-84
2023/12/14 11:13:38;;;;;;;8.43;5.32;;;9.40;99.90;;;;;;4880820;29;20096;-85
2023/12/14 11:16:04;;;;;;;8.30;5.20;;;9.30;99.90;;;;;;4864628;29;20105;-82
2023/12/14 11:18:30;;;;;;;7.03;4.10;;;9.30;99.90;;;;;;4863099;29;20120;-79
2023/12/14 11:21:11;;;;;;;8.52;5.60;;;9.40;99.90;;;;;;4879930;29;20104;-80
2023/12/14 11:23:38;;;;;;;6.53;5.35;;;9.50;99.90;;;;;;4863534;29;20037;-80
2023/12/14 11:26:08;;;;;;;7.00;5.10;;;9.50;99.90;;;;;;4848711;29;20545;-80
2023/12/14 11:28:37;;;;;;;8.85;6.05;;;9.50;99.90;;;;;;4863270;29;20356;-79
2023/12/14 11:31:06;;;;;;;7.00;5.55;;;9.50;99.90;;;;;;4863703;29;20040;-79
2023/12/14 11:33:33;;;;;;;9.43;6.20;;;9.40;99.90;;;;;;4834228;29;20037;-79
2023/12/14 11:35:58;;;;;;;7.00;5.10;;;9.20;99.90;;;;;;4879757;29;20489;-80
2023/12/14 11:38:25;;;;;;;7.72;5.00;;;9.30;99.90;;;;;;4847309;29;20021;-80
2023/12/14 11:40:50;;;;;;;7.88;6.03;;;9.30;99.90;;;;;;4847465;29;20119;-80
2023/12/14 11:43:20;;;;;;;6.95;5.50;;;9.30;99.90;;;;;;4862645;29;20128;-78
2023/12/14 11:45:45;;;;;;;9.07;6.57;;;9.40;99.90;;;;;;4863276;29;20115;-77
2023/12/14 11:48:12;;;;;;;9.50;6.07;;;9.50;99.90;;;;;;4862969;29;20057;-77
2023/12/14 11:50:42;;;;;;;7.65;5.75;;;9.60;99.90;;;;;;4880522;29;20021;-86
2023/12/14 11:53:08;;;;;;;8.60;6.15;;;9.50;99.90;;;;;;4879981;29;20029;-79
2023/12/14 11:55:36;;;;;;;5.85;4.43;;;9.60;99.90;;;;;;4863167;29;20121;-78
2023/12/14 11:58:02;;;;;;;8.73;6.10;;;9.50;99.90;;;;;;4879170;29;20052;-78
2023/12/14 12:00:29;;;;;;;9.88;6.22;;;9.60;99.90;;;;;;4879641;29;20040;-77
2023/12/14 12:03:21;;;;;;;6.47;3.97;;;9.60;99.90;;;;;;4879150;29;20048;-77
2023/12/14 12:05:49;;;;;;;7.63;6.28;;;9.60;99.90;;;;;;4879563;29;20032;-79
2023/12/14 12:08:18;;;;;;;8.40;5.93;;;9.60;99.90;;;;;;4863195;29;20033;-77
2023/12/14 12:10:44;;;;;;;8.00;5.43;;;9.50;99.90;;;;;;4862488;29;20123;-77
2023/12/14 12:13:15;;;;;;;7.25;5.78;;;9.50;99.90;;;;;;4879460;29;20068;-77
2023/12/14 12:15:41;;;;;;;8.50;6.43;;;9.40;99.90;;;;;;4879381;29;20021;-77
2023/12/14 12:18:09;;;;;;;8.07;5.40;;;9.40;99.90;;;;;;4879701;29;20033;-77
2023/12/14 12:20:35;;;;;;;7.47;5.10;;;9.50;99.90;;;;;;4879185;29;20093;-78
2023/12/14 12:23:01;;;;;;;7.18;4.97;;;9.50;99.90;;;;;;4879277;29;20033;-83
2023/12/14 12:25:27;;;;;;;8.27;4.60;;;9.40;99.90;;;;;;4851043;29;20117;-81
2023/12/14 12:27:55;;;;;;;7.65;5.68;;;9.60;99.90;;;;;;4860927;29;20460;-77
2023/12/14 12:30:21;;;;;;;6.97;4.70;;;9.60;99.90;;;;;;4861470;29;20029;-79
2023/12/14 12:32:47;;;;;;;8.63;5.43;;;9.70;99.90;;;;;;4829409;29;20045;-80
2023/12/14 12:35:13;;;;;;;7.50;4.53;;;9.70;99.90;;;;;;4829947;29;20029;-76
2023/12/14 12:37:39;;;;;;;9.07;5.78;;;9.70;99.90;;;;;;4843977;29;20098;-79
2023/12/14 12:40:06;;;;;;;5.80;4.15;;;9.80;99.90;;;;;;4860546;29;20029;-77
2023/12/14 12:42:32;;;;;;;6.85;5.20;;;9.70;99.90;;;;;;4860839;29;20030;-81
2023/12/14 12:44:58;;;;;;;7.43;4.55;;;9.80;99.90;;;;;;4844130;29;20029;-79